<?xml version="1.0" encoding="UTF-8" standalone="no" ?>
<gpx xmlns="http://www.topografix.com/GPX/1/1" xmlns:xsi="http://www.w3.org/2001/XMLSchema-instance" xsi:schemaLocation="http://www.topografix.com/GPX/1/1 http://www.topografix.com/GPX/1/1/gpx.xsd" version="1.1" creator="VisuGPX - https://www.visugpx.com">
  <metadata>
    <name>Rialle_Autour_8-22km</name>
    <desc><![CDATA[gnerando idor:6722432_8173011_8173016_12476141_12476155_12511586_12530915_12533090_13050648]]></desc>
  </metadata>
  <wpt lat="47.55079" lon="-1.37723">
    <ele>56.1</ele>
    <name><![CDATA[0000725]]></name>
    <type><![CDATA[Point de départ]]></type>
  </wpt>
  <wpt lat="47.52565" lon="-1.40637">
    <ele>31.3</ele>
    <name><![CDATA[0000726]]></name>
    <desc><![CDATA[<p><br /><h3>Nom: Segment: 1</h3><br />Heure de départ: 05/30/2021 09:30<br/>Heure d'arrivée: 05/30/2021 12:31<br/>Distance: 15,3km (03:00)<br/>Temps déplacement: 02:45<br/>Vitesse moyenne: 5,07 km/h<br/>Vitesse moyenne mouv.: 5,52 km/h<br/>Vitesse Max.: 20,75 km/h<br/>Altitude minimale: 29 m<br/>Altitude maximale: 61 m<br/>Vitesse de montée: 135,3 m/h<br/>Vitesse de descente: -132,1 m/h<br/>Gain d'altitude: 143 m<br/>Perte d'altitude: -165 m<br/>Temps de montée: 01:03<br/>Temps de descente: 01:15<br/></p>]]></desc>
    <type><![CDATA[Point d'arrivée]]></type>
  </wpt>
  <wpt lat="47.52578" lon="-1.40648">
    <ele>31.5</ele>
    <name><![CDATA[0000727]]></name>
    <type><![CDATA[Point de départ]]></type>
  </wpt>
  <wpt lat="47.55083" lon="-1.37712">
    <ele>56.4</ele>
    <name><![CDATA[0000728]]></name>
    <desc><![CDATA[<p><br /><h3>Nom: Segment: 2</h3><br />Heure de départ: 05/30/2021 13:12<br/>Heure d'arrivée: 05/30/2021 14:32<br/>Distance: 6,7km (01:19)<br/>Temps déplacement: 01:16<br/>Vitesse moyenne: 5,05 km/h<br/>Vitesse moyenne mouv.: 5,23 km/h<br/>Vitesse Max.: 8,06 km/h<br/>Altitude minimale: 34 m<br/>Altitude maximale: 68 m<br/>Vitesse de montée: 179 m/h<br/>Vitesse de descente: -145,6 m/h<br/>Gain d'altitude: 102 m<br/>Perte d'altitude: -77 m<br/>Temps de montée: 00:34<br/>Temps de descente: 00:32<br/></p>]]></desc>
    <type><![CDATA[Point d'arrivée]]></type>
  </wpt>
  <trk>
    <name><![CDATA[Riaille_ValleeErdre_8.5km-12476155]]></name>
    <extensions>
      <line xmlns="http://www.topografix.com/GPX/gpx_style/0/2">
        <color>FF00FF</color>
        <width>4</width>
      </line>
    </extensions>
    <trkseg>
      <trkpt lat="47.51873" lon="-1.29128">
        <ele>35</ele>
        <time>2023-11-11T19:03:38Z</time>
      </trkpt>
      <trkpt lat="47.51653" lon="-1.2908">
        <ele>33</ele>
        <time>2023-11-11T19:08:35Z</time>
      </trkpt>
      <trkpt lat="47.51601" lon="-1.29085">
        <ele>31</ele>
        <time>2023-11-11T19:09:44Z</time>
      </trkpt>
      <trkpt lat="47.51523" lon="-1.28969">
        <ele>28</ele>
        <time>2023-11-11T19:12:12Z</time>
      </trkpt>
      <trkpt lat="47.5141" lon="-1.28797">
        <ele>24</ele>
        <time>2023-11-11T19:15:48Z</time>
      </trkpt>
      <trkpt lat="47.51384" lon="-1.28711">
        <ele>24</ele>
        <time>2023-11-11T19:17:13Z</time>
      </trkpt>
      <trkpt lat="47.51285" lon="-1.28703">
        <ele>22</ele>
        <time>2023-11-11T19:19:25Z</time>
      </trkpt>
      <trkpt lat="47.51256" lon="-1.28759">
        <ele>21</ele>
        <time>2023-11-11T19:20:29Z</time>
      </trkpt>
      <trkpt lat="47.51282" lon="-1.2884">
        <ele>22</ele>
        <time>2023-11-11T19:21:50Z</time>
      </trkpt>
      <trkpt lat="47.51256" lon="-1.2896">
        <ele>22</ele>
        <time>2023-11-11T19:23:43Z</time>
      </trkpt>
      <trkpt lat="47.51204" lon="-1.28965">
        <ele>23</ele>
        <time>2023-11-11T19:24:53Z</time>
      </trkpt>
      <trkpt lat="47.51143" lon="-1.28917">
        <ele>23</ele>
        <time>2023-11-11T19:26:25Z</time>
      </trkpt>
      <trkpt lat="47.51134" lon="-1.28986">
        <ele>24</ele>
        <time>2023-11-11T19:27:28Z</time>
      </trkpt>
      <trkpt lat="47.51088" lon="-1.28943">
        <ele>26</ele>
        <time>2023-11-11T19:28:41Z</time>
      </trkpt>
      <trkpt lat="47.50763" lon="-1.29265">
        <ele>50</ele>
        <time>2023-11-11T19:37:23Z</time>
      </trkpt>
      <trkpt lat="47.50569" lon="-1.29304">
        <ele>65</ele>
        <time>2023-11-11T19:41:44Z</time>
      </trkpt>
      <trkpt lat="47.50479" lon="-1.29338">
        <ele>68</ele>
        <time>2023-11-11T19:43:48Z</time>
      </trkpt>
      <trkpt lat="47.50482" lon="-1.2948">
        <ele>68</ele>
        <time>2023-11-11T19:45:56Z</time>
      </trkpt>
      <trkpt lat="47.50546" lon="-1.29527">
        <ele>67</ele>
        <time>2023-11-11T19:47:31Z</time>
      </trkpt>
      <trkpt lat="47.50679" lon="-1.29763">
        <ele>53</ele>
        <time>2023-11-11T19:52:09Z</time>
      </trkpt>
      <trkpt lat="47.50691" lon="-1.29874">
        <ele>48</ele>
        <time>2023-11-11T19:53:50Z</time>
      </trkpt>
      <trkpt lat="47.50752" lon="-1.29969">
        <ele>40</ele>
        <time>2023-11-11T19:55:48Z</time>
      </trkpt>
      <trkpt lat="47.50755" lon="-1.30063">
        <ele>36</ele>
        <time>2023-11-11T19:57:13Z</time>
      </trkpt>
      <trkpt lat="47.50636" lon="-1.30213">
        <ele>47</ele>
        <time>2023-11-11T20:00:41Z</time>
      </trkpt>
      <trkpt lat="47.50537" lon="-1.30419">
        <ele>52</ele>
        <time>2023-11-11T20:04:29Z</time>
      </trkpt>
      <trkpt lat="47.50444" lon="-1.30492">
        <ele>48</ele>
        <time>2023-11-11T20:06:50Z</time>
      </trkpt>
      <trkpt lat="47.50349" lon="-1.30514">
        <ele>41</ele>
        <time>2023-11-11T20:08:58Z</time>
      </trkpt>
      <trkpt lat="47.50247" lon="-1.30694">
        <ele>34</ele>
        <time>2023-11-11T20:12:30Z</time>
      </trkpt>
      <trkpt lat="47.50183" lon="-1.30724">
        <ele>32</ele>
        <time>2023-11-11T20:13:59Z</time>
      </trkpt>
      <trkpt lat="47.50212" lon="-1.30797">
        <ele>31</ele>
        <time>2023-11-11T20:15:16Z</time>
      </trkpt>
      <trkpt lat="47.50166" lon="-1.31067">
        <ele>36</ele>
        <time>2023-11-11T20:19:27Z</time>
      </trkpt>
      <trkpt lat="47.5023" lon="-1.31102">
        <ele>39</ele>
        <time>2023-11-11T20:20:58Z</time>
      </trkpt>
      <trkpt lat="47.50169" lon="-1.31342">
        <ele>40</ele>
        <time>2023-11-11T20:24:49Z</time>
      </trkpt>
      <trkpt lat="47.50154" lon="-1.31535">
        <ele>36</ele>
        <time>2023-11-11T20:27:44Z</time>
      </trkpt>
      <trkpt lat="47.50253" lon="-1.31501">
        <ele>30</ele>
        <time>2023-11-11T20:30:00Z</time>
      </trkpt>
      <trkpt lat="47.50236" lon="-1.31595">
        <ele>32</ele>
        <time>2023-11-11T20:31:28Z</time>
      </trkpt>
      <trkpt lat="47.5027" lon="-1.31651">
        <ele>28</ele>
        <time>2023-11-11T20:32:35Z</time>
      </trkpt>
      <trkpt lat="47.50221" lon="-1.31788">
        <ele>32</ele>
        <time>2023-11-11T20:34:55Z</time>
      </trkpt>
      <trkpt lat="47.50201" lon="-1.31934">
        <ele>30</ele>
        <time>2023-11-11T20:37:10Z</time>
      </trkpt>
      <trkpt lat="47.50265" lon="-1.31999">
        <ele>21</ele>
        <time>2023-11-11T20:38:53Z</time>
      </trkpt>
      <trkpt lat="47.50531" lon="-1.32209">
        <ele>34</ele>
        <time>2023-11-11T20:45:35Z</time>
      </trkpt>
      <trkpt lat="47.50618" lon="-1.32157">
        <ele>37</ele>
        <time>2023-11-11T20:47:41Z</time>
      </trkpt>
      <trkpt lat="47.50679" lon="-1.3208">
        <ele>39</ele>
        <time>2023-11-11T20:49:28Z</time>
      </trkpt>
      <trkpt lat="47.50685" lon="-1.31939">
        <ele>47</ele>
        <time>2023-11-11T20:51:35Z</time>
      </trkpt>
      <trkpt lat="47.50682" lon="-1.3181">
        <ele>52</ele>
        <time>2023-11-11T20:53:31Z</time>
      </trkpt>
      <trkpt lat="47.50717" lon="-1.31655">
        <ele>53</ele>
        <time>2023-11-11T20:55:59Z</time>
      </trkpt>
      <trkpt lat="47.50653" lon="-1.31625">
        <ele>51</ele>
        <time>2023-11-11T20:57:28Z</time>
      </trkpt>
      <trkpt lat="47.50685" lon="-1.31471">
        <ele>48</ele>
        <time>2023-11-11T20:59:53Z</time>
      </trkpt>
      <trkpt lat="47.50613" lon="-1.31484">
        <ele>42</ele>
        <time>2023-11-11T21:01:30Z</time>
      </trkpt>
      <trkpt lat="47.50624" lon="-1.31415">
        <ele>36</ele>
        <time>2023-11-11T21:02:34Z</time>
      </trkpt>
      <trkpt lat="47.50728" lon="-1.31115">
        <ele>31</ele>
        <time>2023-11-11T21:07:38Z</time>
      </trkpt>
      <trkpt lat="47.50746" lon="-1.31012">
        <ele>29</ele>
        <time>2023-11-11T21:09:14Z</time>
      </trkpt>
      <trkpt lat="47.50888" lon="-1.30784">
        <ele>26</ele>
        <time>2023-11-11T21:13:54Z</time>
      </trkpt>
      <trkpt lat="47.51053" lon="-1.30595">
        <ele>31</ele>
        <time>2023-11-11T21:18:32Z</time>
      </trkpt>
      <trkpt lat="47.51186" lon="-1.30518">
        <ele>33</ele>
        <time>2023-11-11T21:21:43Z</time>
      </trkpt>
      <trkpt lat="47.51268" lon="-1.30458">
        <ele>35</ele>
        <time>2023-11-11T21:23:45Z</time>
      </trkpt>
      <trkpt lat="47.51265" lon="-1.30312">
        <ele>34</ele>
        <time>2023-11-11T21:25:56Z</time>
      </trkpt>
      <trkpt lat="47.51291" lon="-1.3008">
        <ele>32</ele>
        <time>2023-11-11T21:29:28Z</time>
      </trkpt>
      <trkpt lat="47.51294" lon="-1.29883">
        <ele>27</ele>
        <time>2023-11-11T21:32:26Z</time>
      </trkpt>
      <trkpt lat="47.51331" lon="-1.29776">
        <ele>25</ele>
        <time>2023-11-11T21:34:14Z</time>
      </trkpt>
      <trkpt lat="47.51392" lon="-1.2966">
        <ele>23</ele>
        <time>2023-11-11T21:36:27Z</time>
      </trkpt>
      <trkpt lat="47.51442" lon="-1.2945">
        <ele>24</ele>
        <time>2023-11-11T21:39:47Z</time>
      </trkpt>
      <trkpt lat="47.51569" lon="-1.29347">
        <ele>30</ele>
        <time>2023-11-11T21:43:01Z</time>
      </trkpt>
      <trkpt lat="47.51786" lon="-1.29359">
        <ele>39</ele>
        <time>2023-11-11T21:47:50Z</time>
      </trkpt>
      <trkpt lat="47.5176" lon="-1.29226">
        <ele>38</ele>
        <time>2023-11-11T21:49:55Z</time>
      </trkpt>
      <trkpt lat="47.51786" lon="-1.29132">
        <ele>36</ele>
        <time>2023-11-11T21:51:27Z</time>
      </trkpt>
      <trkpt lat="47.51871" lon="-1.29201">
        <ele>38</ele>
        <time>2023-11-11T21:53:36Z</time>
      </trkpt>
    </trkseg>
  </trk>
</gpx>